x

West Santa Barbara 38 Nm West Of Santa Barbara, Ca (46054) Wave Buoy

11:50am - Thu 17th Apr 2014 All times are PDT. -7 hours from GMT.

  • Sig Wave height 6.9ft
  • Swell Direction
  • Peak Period 10s
  • Average Period 8s
  • Wind
    7mph, 9mph gusts
  • Sea Temp 55°f
  • Air Temp 55°f
  • Sea Pressure 1013mb
  • West Santa Barbara  38 Nm West Of Santa Barbara, Ca
  • West Santa Barbara  38 Nm West Of Santa Barbara, Ca

More Historic Weather Station data

Upgrade to MSW Pro to gain access to the past 30 days of data for over 8000 Wavebouys and Weather Stations around the globe.

Join Pro

Comparision Forecast

View Surf forecast
   
Thu 04/17 11:50am 7ft 10s 8s 7 9 mph 1013mb 55f 55f
10:50am 8.5ft 11s 8s 7 9 mph 1013mb 55f 55f
9:50am 8ft 11s 8s 2 4 mph 1012.6mb 54f 55f
8:50am 6.5ft 11s 8s 4 9 mph 1012.3mb 54f 55f
7:50am 7.5ft 11s 8s 7 9 mph 1011.4mb 54f 56f
6:50am 8ft 10s 8s 4 9 mph 1010.9mb 54f 55f
5:50am 7ft 11s 7s 9 13 mph 1010.1mb 54f 55f
4:50am 7ft 11s 8s 7 11 mph 1010.6mb 54f 55f
3:50am 6ft 11s 7s 7 9 mph 1010.4mb 54f 54f
2:50am 7ft 11s 8s 9 11 mph 1010.2mb 54f 54f
1:50am 9ft 11s 8s 7 9 mph 1010.4mb 54f 54f
12:50am 8ft 11s 8s 9
mph
1010.3mb 55f 54f
Wed 04/16 11:50pm 8.5ft 11s 7s 11 13 mph 1010.2mb 55f 55f
10:50pm 8ft 12s 7s 18 20 mph 1010.4mb 55f 55f
9:50pm 8ft 11s 7s 20 25 mph 1009.5mb 55f 55f
8:50pm 8.5ft 11s 7s 16 20 mph 1009.4mb 55f 55f
7:50pm 8.5ft 10s 7s 18 22 mph 1008.7mb 55f 55f
6:50pm 7.5ft 10s 6s 20 25 mph 1008.6mb 55f 55f
5:50pm 8ft 11s 7s 22 27 mph 1008.3mb 55f 55f
4:50pm 7.5ft 10s 7s 20 22 mph 1008.8mb 55f 55f
3:50pm 8ft 11s 8s 18 22 mph 1009.3mb 55f 55f
1:50pm 8ft 10s 7s 13 18 mph 1010.3mb 54f 54f
12:50pm 8ft 11s 8s 16 18 mph 1010.7mb 53f 54f
11:50am 9ft 9s 7s 20 22 mph 1011.1mb 53f 53f
10:50am 9.5ft 8s 7s 20 25 mph 1011.4mb 53f 53f
9:50am 9ft 9s 7s 25 29 mph 1011.1mb 53f 52f
8:50am 9ft 9s 7s 22 29 mph 1011.2mb 53f 52f
7:50am 9.5ft 11s 7s 22 29 mph 1011.1mb 53f 53f
6:50am 10ft 10s 7s 25 29 mph 1010.7mb 53f 53f
5:50am 9ft 11s 7s 27 31 mph 1010.4mb 53f 53f
4:50am 9ft 10s 7s 25 29 mph 1010.7mb 53f 53f
3:50am 10ft 11s 7s 27 31 mph 1010.4mb 53f 54f
2:50am 8ft 9s 6s 27 31 mph 1010.4mb 54f 54f
1:50am 8ft 11s 6s 27 31 mph 1010.5mb 54f 54f
12:50am 8.5ft 8s 6s 25 29 mph 1010.9mb 54f 54f
Tue 04/15 11:50pm 9ft 11s 7s 25 29 mph 1011mb 54f 54f
10:50pm 9ft 9s 7s 27 29 mph 1011.1mb 54f 54f
9:50pm 9ft 13s 7s 25 31 mph 1011.2mb 55f 54f
8:50pm 8.5ft 10s 7s 27 31 mph 1010.7mb 55f 55f
7:50pm 8ft 10s 6s 27 34 mph 1010.2mb 55f 55f
6:50pm 8ft 9s 6s 25 31 mph 1010.5mb 54f 55f
5:50pm 7ft 14s 6s 25 29 mph 1011mb 54f 55f
4:50pm 7ft 14s 6s 27 31 mph 1011.1mb 54f 55f
3:50pm 6ft 14s 6s 27 34 mph 1011.4mb 54f 55f
2:50pm 6.5ft 14s 6s 25 29 mph 1012.6mb 54f 54f
1:50pm 6ft 14s 6s 22 27 mph 1013.5mb 54f 53f
12:50pm 6ft 15s 6s 22 27 mph 1013.8mb 54f 53f
11:50am 6ft 15s 6s 20 25 mph 1014.8mb 54f 53f
10:50am 5ft 14s 6s 20 22 mph 1015.1mb 54f 53f
9:50am 6ft 14s 7s 18 22 mph 1015.6mb 53f 52f
8:50am 6ft 14s 6s 7 9 mph 1015.2mb 53f 52f
7:50am 6ft 15s 6s 18 20 mph 1014.7mb 53f 52f
6:50am 6ft 14s 6s 16 22 mph 1014.2mb 53f 52f
5:50am 6ft 15s 6s 25 29 mph 1013.5mb 53f 52f
4:50am 6ft 15s 6s 25 29 mph 1013.6mb 54f 52f
3:50am 6ft 14s 6s 25 29 mph 1014mb 53f 52f
2:50am 5ft 14s 6s 25 29 mph 1014.5mb 53f 52f
1:50am 6ft 14s 6s 20 22 mph 1015mb 54f 53f
12:50am 6ft 15s 6s 25 29 mph 1015.5mb 54f 53f
Mon 04/14 11:50pm 6ft 14s 6s 25 29 mph 1015.6mb 54f 53f
10:50pm 6ft 14s 6s 22 27 mph 1016.3mb 54f 53f
9:50pm 6ft 14s 6s 25 27 mph 1016.4mb 54f 53f
8:50pm 6ft 15s 6s 22 25 mph 1016.3mb 54f 53f
7:50pm 6ft 15s 7s 20 25 mph 1016mb 54f 53f
6:50pm 6ft 15s 6s 20 25 mph 1015.9mb 54f 52f
5:50pm 6ft 15s 6s 20 25 mph 1016mb 55f 54f
4:50pm 5ft 15s 7s 18 22 mph 1016.6mb 55f 54f
3:50pm 5.5ft 15s 7s 16 18 mph 1017.2mb 55f 55f
2:50pm 5.5ft 15s 8s 13 22 mph 1018.1mb 55f 55f
1:50pm 4.5ft 15s 8s 16 18 mph 1018.9mb 55f 54f
12:50pm 5ft 16s 7s 16 18 mph 1019.1mb 55f 54f
11:50am 4.5ft 17s 7s 13 16 mph 1019mb 54f 54f
10:50am 5.5ft 16s 8s 13 18 mph 1018.8mb 54f 53f
9:50am 6.5ft 16s 9s 13 16 mph 1018.4mb 54f 54f
8:50am 6ft 16s 8s 13 16 mph 1017.8mb 54f 53f
7:50am 6ft 16s 8s 11 13 mph 1017.5mb 54f 53f
6:50am 6ft 16s 8s 9 11 mph 1017.2mb 54f 53f
5:50am 6ft 16s 8s 9 11 mph 1016.6mb 54f 53f
4:50am 5.5ft 16s 8s 4 7 mph 1016.5mb 54f 54f
3:50am 5ft 16s 7s 7 9 mph 1016.6mb 54f 54f
2:50am 5ft 16s 6s 4 7 mph 1016.2mb 54f 54f
1:50am 5ft 9s 6s 11
mph
1016.2mb 54f 54f
12:50am 5ft 17s 6s 18 20 mph 1016.5mb 54f 54f
Sun 04/13 11:50pm 4.5ft 17s 6s 18 22 mph 1016.7mb 54f 55f
10:50pm 5ft 11s 6s 18 22 mph 1016.5mb 54f 55f
9:50pm 4.5ft 10s 5s 20 25 mph 1016.7mb 54f 55f
8:50pm 5ft 10s 6s 20 25 mph 1015.9mb 54f 55f